sensor_id;sensor_type;location;lat;lon;timestamp;P1;durP1;ratioP1;P2;durP2;ratioP2
27275;SDS011;14772;47.398;8.080;2022-09-03T00:05:02;12.97;;;6.50;;
27275;SDS011;14772;47.398;8.080;2022-09-03T00:10:03;13.93;;;6.13;;
27275;SDS011;14772;47.398;8.080;2022-09-03T00:15:04;12.83;;;6.47;;
27275;SDS011;14772;47.398;8.080;2022-09-03T00:20:06;14.80;;;6.40;;
27275;SDS011;14772;47.398;8.080;2022-09-03T00:25:08;13.90;;;6.10;;
27275;SDS011;14772;47.398;8.080;2022-09-03T00:30:09;14.53;;;6.70;;
27275;SDS011;14772;47.398;8.080;2022-09-03T00:35:10;13.33;;;6.20;;
27275;SDS011;14772;47.398;8.080;2022-09-03T00:40:18;13.57;;;6.23;;
27275;SDS011;14772;47.398;8.080;2022-09-03T00:45:17;12.83;;;6.00;;
27275;SDS011;14772;47.398;8.080;2022-09-03T00:50:23;12.73;;;6.20;;
27275;SDS011;14772;47.398;8.080;2022-09-03T00:55:26;14.83;;;6.13;;
27275;SDS011;14772;47.398;8.080;2022-09-03T01:05:54;12.93;;;6.17;;
27275;SDS011;14772;47.398;8.080;2022-09-03T01:11:13;13.13;;;6.33;;
27275;SDS011;14772;47.398;8.080;2022-09-03T01:16:14;12.77;;;6.03;;
27275;SDS011;14772;47.398;8.080;2022-09-03T01:21:22;12.90;;;6.20;;
27275;SDS011;14772;47.398;8.080;2022-09-03T01:26:42;12.23;;;6.10;;
27275;SDS011;14772;47.398;8.080;2022-09-03T01:31:47;13.53;;;5.90;;
27275;SDS011;14772;47.398;8.080;2022-09-03T01:36:49;12.70;;;6.07;;
27275;SDS011;14772;47.398;8.080;2022-09-03T01:41:54;13.67;;;6.50;;
27275;SDS011;14772;47.398;8.080;2022-09-03T01:46:55;14.67;;;6.50;;
27275;SDS011;14772;47.398;8.080;2022-09-03T01:51:58;13.30;;;6.13;;
27275;SDS011;14772;47.398;8.080;2022-09-03T02:02:49;14.17;;;6.07;;
27275;SDS011;14772;47.398;8.080;2022-09-03T02:07:59;12.60;;;6.13;;
27275;SDS011;14772;47.398;8.080;2022-09-03T02:13:25;15.53;;;7.07;;
27275;SDS011;14772;47.398;8.080;2022-09-03T02:18:35;14.67;;;6.80;;
27275;SDS011;14772;47.398;8.080;2022-09-03T02:23:45;13.10;;;6.53;;
27275;SDS011;14772;47.398;8.080;2022-09-03T02:34:21;13.30;;;6.83;;
27275;SDS011;14772;47.398;8.080;2022-09-03T02:39:19;13.27;;;6.57;;
27275;SDS011;14772;47.398;8.080;2022-09-03T02:44:17;13.00;;;6.50;;
27275;SDS011;14772;47.398;8.080;2022-09-03T02:49:17;13.40;;;6.80;;
27275;SDS011;14772;47.398;8.080;2022-09-03T02:54:15;14.13;;;6.50;;
27275;SDS011;14772;47.398;8.080;2022-09-03T02:59:12;14.13;;;6.40;;
27275;SDS011;14772;47.398;8.080;2022-09-03T03:04:10;13.73;;;6.57;;
27275;SDS011;14772;47.398;8.080;2022-09-03T03:09:07;13.17;;;6.47;;
27275;SDS011;14772;47.398;8.080;2022-09-03T03:14:04;12.40;;;5.93;;
27275;SDS011;14772;47.398;8.080;2022-09-03T03:19:02;12.70;;;6.53;;
27275;SDS011;14772;47.398;8.080;2022-09-03T03:24:00;14.23;;;6.50;;
27275;SDS011;14772;47.398;8.080;2022-09-03T03:28:59;13.93;;;6.70;;
27275;SDS011;14772;47.398;8.080;2022-09-03T03:33:57;13.97;;;7.00;;
27275;SDS011;14772;47.398;8.080;2022-09-03T03:38:56;15.47;;;6.50;;
27275;SDS011;14772;47.398;8.080;2022-09-03T03:43:55;13.17;;;6.50;;
27275;SDS011;14772;47.398;8.080;2022-09-03T03:48:54;13.40;;;6.37;;
27275;SDS011;14772;47.398;8.080;2022-09-03T03:53:53;14.07;;;6.60;;
27275;SDS011;14772;47.398;8.080;2022-09-03T03:58:52;12.57;;;6.80;;
27275;SDS011;14772;47.398;8.080;2022-09-03T04:03:50;14.13;;;5.90;;
27275;SDS011;14772;47.398;8.080;2022-09-03T04:08:50;11.93;;;5.20;;
27275;SDS011;14772;47.398;8.080;2022-09-03T04:13:48;11.80;;;5.10;;
27275;SDS011;14772;47.398;8.080;2022-09-03T04:18:46;11.93;;;5.00;;
27275;SDS011;14772;47.398;8.080;2022-09-03T04:23:45;11.20;;;4.70;;
27275;SDS011;14772;47.398;8.080;2022-09-03T04:28:44;13.03;;;5.00;;
27275;SDS011;14772;47.398;8.080;2022-09-03T04:33:42;13.47;;;4.77;;
27275;SDS011;14772;47.398;8.080;2022-09-03T04:38:40;11.47;;;4.80;;
27275;SDS011;14772;47.398;8.080;2022-09-03T04:43:40;11.03;;;4.70;;
27275;SDS011;14772;47.398;8.080;2022-09-03T04:48:38;10.50;;;4.30;;
27275;SDS011;14772;47.398;8.080;2022-09-03T04:53:36;11.97;;;4.77;;
27275;SDS011;14772;47.398;8.080;2022-09-03T04:58:35;11.80;;;4.60;;
27275;SDS011;14772;47.398;8.080;2022-09-03T05:03:33;12.43;;;4.50;;
27275;SDS011;14772;47.398;8.080;2022-09-03T05:08:30;12.47;;;4.20;;
27275;SDS011;14772;47.398;8.080;2022-09-03T05:13:27;10.73;;;4.30;;
27275;SDS011;14772;47.398;8.080;2022-09-03T05:18:25;10.87;;;4.23;;
27275;SDS011;14772;47.398;8.080;2022-09-03T05:23:23;11.07;;;3.97;;
27275;SDS011;14772;47.398;8.080;2022-09-03T05:28:20;11.13;;;4.23;;
27275;SDS011;14772;47.398;8.080;2022-09-03T05:33:17;12.33;;;4.10;;
27275;SDS011;14772;47.398;8.080;2022-09-03T05:38:14;13.87;;;5.00;;
27275;SDS011;14772;47.398;8.080;2022-09-03T05:43:11;15.33;;;5.03;;
27275;SDS011;14772;47.398;8.080;2022-09-03T05:48:09;13.67;;;5.00;;
27275;SDS011;14772;47.398;8.080;2022-09-03T05:53:06;13.60;;;5.00;;
27275;SDS011;14772;47.398;8.080;2022-09-03T05:58:04;12.47;;;5.13;;
27275;SDS011;14772;47.398;8.080;2022-09-03T06:03:02;10.70;;;4.60;;
27275;SDS011;14772;47.398;8.080;2022-09-03T06:13:20;12.20;;;4.70;;
27275;SDS011;14772;47.398;8.080;2022-09-03T06:18:17;11.80;;;4.40;;
27275;SDS011;14772;47.398;8.080;2022-09-03T06:23:14;11.87;;;4.60;;
27275;SDS011;14772;47.398;8.080;2022-09-03T06:28:12;11.57;;;4.30;;
27275;SDS011;14772;47.398;8.080;2022-09-03T06:33:09;10.83;;;4.33;;
27275;SDS011;14772;47.398;8.080;2022-09-03T06:38:06;11.20;;;4.40;;
27275;SDS011;14772;47.398;8.080;2022-09-03T06:43:03;10.90;;;4.43;;
27275;SDS011;14772;47.398;8.080;2022-09-03T06:48:01;10.23;;;4.20;;
27275;SDS011;14772;47.398;8.080;2022-09-03T06:52:58;11.90;;;4.70;;
27275;SDS011;14772;47.398;8.080;2022-09-03T06:57:55;10.53;;;4.03;;
27275;SDS011;14772;47.398;8.080;2022-09-03T07:02:55;10.43;;;4.00;;
27275;SDS011;14772;47.398;8.080;2022-09-03T07:07:53;12.00;;;4.10;;
27275;SDS011;14772;47.398;8.080;2022-09-03T07:12:50;10.10;;;3.90;;
27275;SDS011;14772;47.398;8.080;2022-09-03T07:17:49;11.20;;;3.60;;
27275;SDS011;14772;47.398;8.080;2022-09-03T07:22:46;9.37;;;3.60;;
27275;SDS011;14772;47.398;8.080;2022-09-03T07:27:43;11.13;;;4.27;;
27275;SDS011;14772;47.398;8.080;2022-09-03T07:32:40;10.20;;;3.83;;
27275;SDS011;14772;47.398;8.080;2022-09-03T07:37:39;10.33;;;3.90;;
27275;SDS011;14772;47.398;8.080;2022-09-03T07:42:37;11.47;;;3.60;;
27275;SDS011;14772;47.398;8.080;2022-09-03T07:47:34;11.13;;;3.50;;
27275;SDS011;14772;47.398;8.080;2022-09-03T07:52:31;10.07;;;3.63;;
27275;SDS011;14772;47.398;8.080;2022-09-03T07:57:29;9.50;;;3.53;;
27275;SDS011;14772;47.398;8.080;2022-09-03T08:02:26;11.03;;;3.93;;
27275;SDS011;14772;47.398;8.080;2022-09-03T08:07:23;9.60;;;3.67;;
27275;SDS011;14772;47.398;8.080;2022-09-03T08:12:20;10.23;;;3.73;;
27275;SDS011;14772;47.398;8.080;2022-09-03T08:17:18;16.77;;;7.23;;
27275;SDS011;14772;47.398;8.080;2022-09-03T08:22:15;10.53;;;4.10;;
27275;SDS011;14772;47.398;8.080;2022-09-03T08:27:12;10.90;;;4.10;;
27275;SDS011;14772;47.398;8.080;2022-09-03T08:32:09;12.70;;;4.67;;
27275;SDS011;14772;47.398;8.080;2022-09-03T08:37:06;10.40;;;3.67;;
27275;SDS011;14772;47.398;8.080;2022-09-03T08:42:14;9.40;;;3.47;;
27275;SDS011;14772;47.398;8.080;2022-09-03T08:47:19;10.03;;;3.13;;
27275;SDS011;14772;47.398;8.080;2022-09-03T08:52:20;10.83;;;3.53;;
27275;SDS011;14772;47.398;8.080;2022-09-03T08:57:22;11.17;;;3.50;;
27275;SDS011;14772;47.398;8.080;2022-09-03T09:02:21;8.47;;;3.50;;
27275;SDS011;14772;47.398;8.080;2022-09-03T09:07:24;10.47;;;4.00;;
27275;SDS011;14772;47.398;8.080;2022-09-03T09:12:28;9.03;;;3.53;;
27275;SDS011;14772;47.398;8.080;2022-09-03T09:17:48;9.27;;;3.47;;
27275;SDS011;14772;47.398;8.080;2022-09-03T09:22:53;9.40;;;3.70;;
27275;SDS011;14772;47.398;8.080;2022-09-03T09:27:55;10.40;;;3.90;;
27275;SDS011;14772;47.398;8.080;2022-09-03T09:32:54;10.67;;;4.30;;
27275;SDS011;14772;47.398;8.080;2022-09-03T09:37:54;10.67;;;4.20;;
27275;SDS011;14772;47.398;8.080;2022-09-03T09:43:05;9.97;;;3.63;;
27275;SDS011;14772;47.398;8.080;2022-09-03T09:48:05;11.47;;;4.07;;
27275;SDS011;14772;47.398;8.080;2022-09-03T09:53:07;10.20;;;4.03;;
27275;SDS011;14772;47.398;8.080;2022-09-03T09:58:06;10.27;;;3.90;;
27275;SDS011;14772;47.398;8.080;2022-09-03T10:03:08;9.70;;;3.70;;
27275;SDS011;14772;47.398;8.080;2022-09-03T10:08:16;10.37;;;3.57;;
27275;SDS011;14772;47.398;8.080;2022-09-03T10:13:15;11.47;;;3.30;;
27275;SDS011;14772;47.398;8.080;2022-09-03T10:18:14;10.40;;;3.30;;
27275;SDS011;14772;47.398;8.080;2022-09-03T10:23:15;9.20;;;3.10;;
27275;SDS011;14772;47.398;8.080;2022-09-03T10:28:16;10.10;;;3.27;;
27275;SDS011;14772;47.398;8.080;2022-09-03T10:33:17;8.87;;;2.80;;
27275;SDS011;14772;47.398;8.080;2022-09-03T10:38:19;6.80;;;2.60;;
27275;SDS011;14772;47.398;8.080;2022-09-03T10:43:21;8.30;;;2.53;;
27275;SDS011;14772;47.398;8.080;2022-09-03T10:48:31;8.37;;;2.73;;
27275;SDS011;14772;47.398;8.080;2022-09-03T10:53:56;7.40;;;2.70;;
27275;SDS011;14772;47.398;8.080;2022-09-03T10:59:16;7.40;;;2.60;;
27275;SDS011;14772;47.398;8.080;2022-09-03T11:04:23;7.47;;;2.60;;
27275;SDS011;14772;47.398;8.080;2022-09-03T11:09:25;8.73;;;3.27;;
27275;SDS011;14772;47.398;8.080;2022-09-03T11:14:29;8.10;;;2.87;;
27275;SDS011;14772;47.398;8.080;2022-09-03T11:19:31;8.23;;;2.80;;
27275;SDS011;14772;47.398;8.080;2022-09-03T11:24:31;9.03;;;3.07;;
27275;SDS011;14772;47.398;8.080;2022-09-03T11:29:31;8.47;;;2.70;;
27275;SDS011;14772;47.398;8.080;2022-09-03T11:34:31;6.63;;;2.50;;
27275;SDS011;14772;47.398;8.080;2022-09-03T11:39:33;7.20;;;2.60;;
27275;SDS011;14772;47.398;8.080;2022-09-03T11:44:36;7.67;;;2.53;;
27275;SDS011;14772;47.398;8.080;2022-09-03T11:49:34;8.03;;;2.90;;
27275;SDS011;14772;47.398;8.080;2022-09-03T11:54:42;7.00;;;2.50;;
27275;SDS011;14772;47.398;8.080;2022-09-03T11:59:40;6.23;;;2.40;;
27275;SDS011;14772;47.398;8.080;2022-09-03T12:04:39;4.80;;;2.20;;
27275;SDS011;14772;47.398;8.080;2022-09-03T12:09:44;6.70;;;2.50;;
27275;SDS011;14772;47.398;8.080;2022-09-03T12:14:57;8.07;;;2.80;;
27275;SDS011;14772;47.398;8.080;2022-09-03T12:20:01;7.57;;;2.60;;
27275;SDS011;14772;47.398;8.080;2022-09-03T12:25:06;7.83;;;2.70;;
27275;SDS011;14772;47.398;8.080;2022-09-03T12:30:12;6.37;;;2.47;;
27275;SDS011;14772;47.398;8.080;2022-09-03T12:35:11;6.33;;;2.50;;
27275;SDS011;14772;47.398;8.080;2022-09-03T12:40:16;7.17;;;2.70;;
27275;SDS011;14772;47.398;8.080;2022-09-03T12:45:17;6.13;;;2.40;;
27275;SDS011;14772;47.398;8.080;2022-09-03T12:50:15;6.57;;;2.40;;
27275;SDS011;14772;47.398;8.080;2022-09-03T12:55:23;8.07;;;2.73;;
27275;SDS011;14772;47.398;8.080;2022-09-03T13:00:23;8.20;;;2.57;;
27275;SDS011;14772;47.398;8.080;2022-09-03T13:05:21;6.10;;;2.53;;
27275;SDS011;14772;47.398;8.080;2022-09-03T13:10:23;7.67;;;2.77;;
27275;SDS011;14772;47.398;8.080;2022-09-03T13:15:24;8.83;;;3.17;;
27275;SDS011;14772;47.398;8.080;2022-09-03T13:20:26;7.00;;;2.63;;
27275;SDS011;14772;47.398;8.080;2022-09-03T13:30:36;7.83;;;2.23;;
27275;SDS011;14772;47.398;8.080;2022-09-03T13:35:36;6.50;;;2.63;;
27275;SDS011;14772;47.398;8.080;2022-09-03T13:40:36;7.40;;;2.80;;
27275;SDS011;14772;47.398;8.080;2022-09-03T13:45:40;5.47;;;2.30;;
27275;SDS011;14772;47.398;8.080;2022-09-03T13:50:40;8.60;;;3.40;;
27275;SDS011;14772;47.398;8.080;2022-09-03T13:55:43;7.50;;;2.80;;
27275;SDS011;14772;47.398;8.080;2022-09-03T14:00:42;7.63;;;2.53;;
27275;SDS011;14772;47.398;8.080;2022-09-03T14:05:48;5.37;;;2.27;;
27275;SDS011;14772;47.398;8.080;2022-09-03T14:10:53;7.17;;;2.83;;
27275;SDS011;14772;47.398;8.080;2022-09-03T14:15:59;7.70;;;2.73;;
27275;SDS011;14772;47.398;8.080;2022-09-03T14:20:58;7.67;;;2.63;;
27275;SDS011;14772;47.398;8.080;2022-09-03T14:25:59;7.77;;;2.70;;
27275;SDS011;14772;47.398;8.080;2022-09-03T14:31:02;7.63;;;2.70;;
27275;SDS011;14772;47.398;8.080;2022-09-03T14:36:15;7.07;;;2.70;;
27275;SDS011;14772;47.398;8.080;2022-09-03T14:41:25;7.73;;;2.70;;
27275;SDS011;14772;47.398;8.080;2022-09-03T14:46:46;7.73;;;2.60;;
27275;SDS011;14772;47.398;8.080;2022-09-03T14:51:53;8.70;;;3.20;;
27275;SDS011;14772;47.398;8.080;2022-09-03T14:56:59;7.07;;;2.50;;
27275;SDS011;14772;47.398;8.080;2022-09-03T15:02:11;6.07;;;2.50;;
27275;SDS011;14772;47.398;8.080;2022-09-03T15:07:23;6.93;;;2.60;;
27275;SDS011;14772;47.398;8.080;2022-09-03T15:12:27;6.00;;;2.57;;
27275;SDS011;14772;47.398;8.080;2022-09-03T15:17:31;7.53;;;2.93;;
27275;SDS011;14772;47.398;8.080;2022-09-03T15:22:36;9.90;;;3.20;;
27275;SDS011;14772;47.398;8.080;2022-09-03T15:27:43;6.80;;;2.87;;
27275;SDS011;14772;47.398;8.080;2022-09-03T15:32:48;7.60;;;2.80;;
27275;SDS011;14772;47.398;8.080;2022-09-03T15:37:53;7.33;;;2.87;;
27275;SDS011;14772;47.398;8.080;2022-09-03T15:42:53;8.80;;;3.30;;
27275;SDS011;14772;47.398;8.080;2022-09-03T15:47:54;8.53;;;3.30;;
27275;SDS011;14772;47.398;8.080;2022-09-03T15:52:54;9.87;;;3.23;;
27275;SDS011;14772;47.398;8.080;2022-09-03T15:57:57;8.03;;;2.87;;
27275;SDS011;14772;47.398;8.080;2022-09-03T16:03:00;9.03;;;3.00;;
27275;SDS011;14772;47.398;8.080;2022-09-03T16:08:07;10.70;;;3.83;;
27275;SDS011;14772;47.398;8.080;2022-09-03T16:13:10;9.67;;;3.33;;
27275;SDS011;14772;47.398;8.080;2022-09-03T16:18:20;7.17;;;2.80;;
27275;SDS011;14772;47.398;8.080;2022-09-03T16:23:18;8.37;;;3.00;;
27275;SDS011;14772;47.398;8.080;2022-09-03T16:28:19;9.47;;;3.63;;
27275;SDS011;14772;47.398;8.080;2022-09-03T16:33:22;8.17;;;3.00;;
27275;SDS011;14772;47.398;8.080;2022-09-03T16:38:42;8.13;;;2.90;;
27275;SDS011;14772;47.398;8.080;2022-09-03T16:43:43;10.80;;;3.37;;
27275;SDS011;14772;47.398;8.080;2022-09-03T16:48:44;10.03;;;3.30;;
27275;SDS011;14772;47.398;8.080;2022-09-03T16:53:51;8.37;;;3.07;;
27275;SDS011;14772;47.398;8.080;2022-09-03T16:58:56;9.87;;;3.20;;
27275;SDS011;14772;47.398;8.080;2022-09-03T17:03:58;9.67;;;3.40;;
27275;SDS011;14772;47.398;8.080;2022-09-03T17:09:06;9.87;;;3.90;;
27275;SDS011;14772;47.398;8.080;2022-09-03T17:14:22;11.90;;;3.60;;
27275;SDS011;14772;47.398;8.080;2022-09-03T17:19:26;9.63;;;3.23;;
27275;SDS011;14772;47.398;8.080;2022-09-03T17:24:36;8.60;;;2.93;;
27275;SDS011;14772;47.398;8.080;2022-09-03T17:29:40;8.70;;;3.00;;
27275;SDS011;14772;47.398;8.080;2022-09-03T17:35:02;8.43;;;2.90;;
27275;SDS011;14772;47.398;8.080;2022-09-03T17:40:08;9.80;;;3.00;;
27275;SDS011;14772;47.398;8.080;2022-09-03T17:45:15;9.37;;;2.80;;
27275;SDS011;14772;47.398;8.080;2022-09-03T17:50:16;15.13;;;6.37;;
27275;SDS011;14772;47.398;8.080;2022-09-03T17:55:22;10.63;;;3.77;;
27275;SDS011;14772;47.398;8.080;2022-09-03T18:00:22;12.07;;;3.57;;
27275;SDS011;14772;47.398;8.080;2022-09-03T18:05:21;9.67;;;3.47;;
27275;SDS011;14772;47.398;8.080;2022-09-03T18:10:24;8.00;;;3.00;;
27275;SDS011;14772;47.398;8.080;2022-09-03T18:15:25;9.93;;;3.40;;
27275;SDS011;14772;47.398;8.080;2022-09-03T18:20:26;9.17;;;3.07;;
27275;SDS011;14772;47.398;8.080;2022-09-03T18:25:26;11.33;;;3.70;;
27275;SDS011;14772;47.398;8.080;2022-09-03T18:30:25;10.00;;;3.60;;
27275;SDS011;14772;47.398;8.080;2022-09-03T18:35:22;9.27;;;3.60;;
27275;SDS011;14772;47.398;8.080;2022-09-03T18:40:24;9.67;;;3.40;;
27275;SDS011;14772;47.398;8.080;2022-09-03T18:45:36;11.33;;;3.67;;
27275;SDS011;14772;47.398;8.080;2022-09-03T18:50:40;11.10;;;4.60;;
27275;SDS011;14772;47.398;8.080;2022-09-03T18:55:49;12.63;;;3.77;;
27275;SDS011;14772;47.398;8.080;2022-09-03T19:00:45;9.50;;;3.53;;
27275;SDS011;14772;47.398;8.080;2022-09-03T19:05:47;9.63;;;3.57;;
27275;SDS011;14772;47.398;8.080;2022-09-03T19:10:50;11.37;;;3.60;;
27275;SDS011;14772;47.398;8.080;2022-09-03T19:15:58;9.73;;;3.67;;
27275;SDS011;14772;47.398;8.080;2022-09-03T19:38:59;8.30;;;3.20;;
27275;SDS011;14772;47.398;8.080;2022-09-03T19:55:53;8.97;;;3.20;;
27275;SDS011;14772;47.398;8.080;2022-09-03T20:12:25;10.10;;;3.20;;
27275;SDS011;14772;47.398;8.080;2022-09-03T20:23:30;13.33;;;3.27;;
27275;SDS011;14772;47.398;8.080;2022-09-03T20:29:15;9.13;;;3.20;;
27275;SDS011;14772;47.398;8.080;2022-09-03T20:45:23;9.67;;;3.67;;
27275;SDS011;14772;47.398;8.080;2022-09-03T20:56:35;10.40;;;3.77;;
27275;SDS011;14772;47.398;8.080;2022-09-03T21:01:54;11.33;;;3.90;;
27275;SDS011;14772;47.398;8.080;2022-09-03T21:06:57;10.37;;;3.70;;
27275;SDS011;14772;47.398;8.080;2022-09-03T21:11:59;12.57;;;4.20;;
27275;SDS011;14772;47.398;8.080;2022-09-03T21:17:03;11.80;;;4.20;;
27275;SDS011;14772;47.398;8.080;2022-09-03T21:27:49;11.87;;;5.27;;
27275;SDS011;14772;47.398;8.080;2022-09-03T21:44:55;12.70;;;4.50;;
27275;SDS011;14772;47.398;8.080;2022-09-03T22:23:42;10.70;;;4.40;;
27275;SDS011;14772;47.398;8.080;2022-09-03T22:28:54;11.37;;;4.07;;
27275;SDS011;14772;47.398;8.080;2022-09-03T22:40:33;13.10;;;4.33;;
27275;SDS011;14772;47.398;8.080;2022-09-03T22:46:05;13.50;;;4.37;;
27275;SDS011;14772;47.398;8.080;2022-09-03T22:51:22;11.13;;;4.10;;
27275;SDS011;14772;47.398;8.080;2022-09-03T22:56:48;14.10;;;4.20;;
27275;SDS011;14772;47.398;8.080;2022-09-03T23:02:25;12.17;;;4.80;;
27275;SDS011;14772;47.398;8.080;2022-09-03T23:07:41;13.23;;;4.37;;
27275;SDS011;14772;47.398;8.080;2022-09-03T23:18:45;11.93;;;4.37;;
27275;SDS011;14772;47.398;8.080;2022-09-03T23:23:54;12.63;;;4.27;;
27275;SDS011;14772;47.398;8.080;2022-09-03T23:34:51;10.50;;;3.73;;
